createdAt,value
2022-09-20T00:03:42.939Z,98823.02
2022-09-20T00:08:50.827Z,98828.60
2022-09-20T00:13:59.912Z,98830.25
2022-09-20T00:19:10.007Z,98830.02
2022-09-20T00:24:19.445Z,98833.61
2022-09-20T00:29:26.676Z,98835.06
2022-09-20T00:34:51.352Z,98838.63
2022-09-20T00:40:00.122Z,98836.36
2022-09-20T00:45:09.936Z,98836.55
2022-09-20T00:50:27.887Z,98839.22
2022-09-20T00:55:37.663Z,98835.94
2022-09-20T01:00:48.977Z,98836.64
2022-09-20T01:05:57.467Z,98839.91
2022-09-20T01:11:04.976Z,98833.84
2022-09-20T01:16:16.363Z,98833.05
2022-09-20T01:21:24.044Z,98836.67
2022-09-20T01:26:53.573Z,98834.46
2022-09-20T01:32:05.389Z,98836.48
2022-09-20T01:37:25.524Z,98831.34
2022-09-20T01:42:38.396Z,98834.39
2022-09-20T01:47:53.934Z,98833.14
2022-09-20T01:53:38.720Z,98832.77
2022-09-20T01:59:31.440Z,98835.84
2022-09-20T02:05:08.428Z,98837.98
2022-09-20T02:10:36.485Z,98841.88
2022-09-20T02:16:07.345Z,98839.80
2022-09-20T02:21:28.763Z,98845.56
2022-09-20T02:26:47.942Z,98854.61
2022-09-20T02:32:11.228Z,98852.58
2022-09-20T02:37:34.857Z,98858.11
2022-09-20T02:42:47.545Z,98864.90
2022-09-20T02:48:02.341Z,98863.60
2022-09-20T02:53:26.539Z,98864.98
2022-09-20T02:58:42.316Z,98871.30
2022-09-20T03:03:59.068Z,98876.19
2022-09-20T03:09:17.601Z,98875.80
2022-09-20T03:24:15.337Z,98876.81
2022-09-20T03:29:36.573Z,98882.98
2022-09-20T03:34:54.343Z,98883.52
2022-09-20T03:40:26.557Z,98882.60
2022-09-20T03:46:04.366Z,98887.10
2022-09-20T03:51:30.435Z,98886.71
2022-09-20T03:57:19.581Z,98898.11
2022-09-20T04:02:42.975Z,98901.60
2022-09-20T04:08:05.239Z,98897.73
2022-09-20T04:13:26.568Z,98901.39
2022-09-20T04:18:41.287Z,98913.11
2022-09-20T04:23:57.679Z,98913.80
2022-09-20T04:29:20.427Z,98915.30
2022-09-20T04:34:51.688Z,98917.02
2022-09-20T04:40:11.094Z,98917.79
2022-09-20T04:45:35.255Z,98919.09
2022-09-20T04:51:12.930Z,98923.73
2022-09-20T04:56:29.858Z,98932.27
2022-09-20T05:02:26.145Z,98929.93
2022-09-20T05:08:14.472Z,98933.81
2022-09-20T05:13:39.791Z,98940.09
2022-09-20T05:19:13.729Z,98946.58
2022-09-20T05:24:40.266Z,98947.45
2022-09-20T05:29:57.099Z,98952.73
2022-09-20T05:35:13.943Z,98954.77
2022-09-20T05:40:30.024Z,98955.95
2022-09-20T05:45:53.972Z,98959.45
2022-09-20T05:51:05.761Z,98962.97
2022-09-20T05:56:23.692Z,98962.45
2022-09-20T06:01:35.485Z,98966.46
2022-09-20T06:06:57.201Z,98970.88
2022-09-20T06:12:24.426Z,98972.65
2022-09-20T06:17:38.571Z,98979.17
2022-09-20T06:22:50.063Z,98980.20
2022-09-20T06:28:01.465Z,98983.10
2022-09-20T06:33:18.379Z,98989.35
2022-09-20T06:38:59.171Z,98998.52
2022-09-20T06:44:06.600Z,99000.02
2022-09-20T06:49:13.588Z,99009.35
2022-09-20T06:54:23.743Z,99005.23
2022-09-20T06:59:32.180Z,99011.61
2022-09-20T07:04:39.309Z,99016.34
2022-09-20T07:09:50.215Z,99019.40
2022-09-20T07:14:57.395Z,99026.26
2022-09-20T07:20:17.411Z,99032.60
2022-09-20T07:25:28.195Z,99046.27
2022-09-20T07:30:35.378Z,99049.67
2022-09-20T07:35:41.749Z,99053.89
2022-09-20T07:45:13.325Z,99051.83
2022-09-20T07:50:20.399Z,99058.13
2022-09-20T07:55:27.254Z,99062.36
2022-09-20T08:00:32.521Z,99064.02
2022-09-20T08:05:39.660Z,99066.64
2022-09-20T08:10:47.185Z,99078.85
2022-09-20T08:16:02.323Z,99082.17
2022-09-20T08:21:11.295Z,99079.94
2022-09-20T08:26:20.410Z,99084.04
2022-09-20T08:31:31.853Z,99084.58
2022-09-20T08:36:41.417Z,99088.73
2022-09-20T08:45:22.268Z,99090.59
2022-09-20T08:50:31.093Z,99096.77
2022-09-20T08:55:40.628Z,99098.56
2022-09-20T09:00:49.853Z,99096.41
2022-09-20T09:05:58.559Z,99092.73
2022-09-20T09:11:14.178Z,99093.39
2022-09-20T09:16:25.698Z,99092.59
2022-09-20T09:21:39.063Z,99086.48
2022-09-20T09:26:46.927Z,99077.90
2022-09-20T09:31:55.369Z,99073.14
2022-09-20T09:37:02.515Z,99074.35
2022-09-20T09:42:26.907Z,99076.52
2022-09-20T09:47:39.896Z,99075.98
2022-09-20T09:53:00.695Z,99075.64
2022-09-20T09:58:22.917Z,99083.17
2022-09-20T10:03:53.029Z,99084.13
2022-09-20T10:09:13.513Z,99080.40
2022-09-20T10:14:30.855Z,99078.92
2022-09-20T10:19:53.049Z,99079.20
2022-09-20T10:25:15.681Z,99075.44
2022-09-20T10:30:27.258Z,99066.05
2022-09-20T10:35:53.255Z,99064.05
2022-09-20T10:41:44.137Z,99061.69
2022-09-20T10:47:02.761Z,99069.15
2022-09-20T10:52:23.727Z,99075.08
2022-09-20T10:58:03.574Z,99075.13
2022-09-20T11:03:26.869Z,99070.38
2022-09-20T11:08:38.364Z,99070.98
2022-09-20T11:13:53.625Z,99069.33
2022-09-20T11:19:07.459Z,99064.41
2022-09-20T11:24:29.321Z,99057.57
2022-09-20T11:29:41.087Z,99055.44
2022-09-20T11:34:55.793Z,99069.36
2022-09-20T11:40:08.490Z,99070.66
2022-09-20T11:45:16.018Z,99074.98
2022-09-20T11:50:52.860Z,99074.61
2022-09-20T11:56:05.485Z,99072.17
2022-09-20T12:01:16.495Z,99075.05
2022-09-20T12:06:33.366Z,99074.23
2022-09-20T12:11:42.132Z,99082.64
2022-09-20T12:16:53.106Z,99079.39
2022-09-20T12:22:31.107Z,99071.83
2022-09-20T12:27:58.736Z,99066.11
2022-09-20T12:33:06.052Z,99064.20
2022-09-20T12:38:42.631Z,99064.45
2022-09-20T12:44:07.130Z,99066.70
2022-09-20T12:50:08.652Z,99060.80
2022-09-20T12:55:38.223Z,99053.51
2022-09-20T13:00:50.247Z,99060.04
2022-09-20T13:06:27.441Z,99073.23
2022-09-20T13:11:41.642Z,99089.25
2022-09-20T13:16:55.228Z,99094.43
2022-09-20T13:22:08.119Z,99096.55
2022-09-20T13:27:20.780Z,99097.09
2022-09-20T13:32:31.198Z,99093.02
2022-09-20T13:37:43.643Z,99099.52
2022-09-20T13:42:52.461Z,99101.54
2022-09-20T13:48:02.616Z,99099.05
2022-09-20T13:53:39.469Z,99095.77
2022-09-20T13:58:46.813Z,99087.92
2022-09-20T14:03:54.634Z,99091.21
2022-09-20T14:09:09.844Z,99086.97
2022-09-20T14:14:22.237Z,99088.94
2022-09-20T14:19:33.351Z,99090.84
2022-09-20T14:24:40.500Z,99090.96
2022-09-20T14:29:49.184Z,99086.98
2022-09-20T14:35:08.339Z,99092.55
2022-09-20T14:40:26.953Z,99098.11
2022-09-20T14:45:37.847Z,99100.77
2022-09-20T14:50:47.334Z,99104.77
2022-09-20T14:56:09.317Z,99106.45
2022-09-20T15:01:25.031Z,99109.14
2022-09-20T15:06:32.010Z,99114.77
2022-09-20T15:11:39.651Z,99123.02
2022-09-20T15:16:46.843Z,99126.46
2022-09-20T15:21:54.226Z,99125.31
2022-09-20T15:27:01.414Z,99128.28
2022-09-20T15:32:09.429Z,99134.58
2022-09-20T15:37:16.855Z,99134.98
2022-09-20T15:42:24.244Z,99139.79
2022-09-20T15:47:32.076Z,99145.61
2022-09-20T15:52:41.414Z,99149.88
2022-09-20T15:57:50.068Z,99152.20
2022-09-20T16:02:57.455Z,99152.08
2022-09-20T16:08:05.022Z,99148.18
2022-09-20T16:13:12.503Z,99155.11
2022-09-20T16:18:37.475Z,99166.81
2022-09-20T16:23:49.555Z,99181.21
2022-09-20T16:28:58.096Z,99183.48
2022-09-20T16:34:07.745Z,99183.83
2022-09-20T16:39:16.104Z,99186.64
2022-09-20T16:44:27.707Z,99187.00
2022-09-20T16:49:38.379Z,99188.81
2022-09-20T16:54:45.549Z,99199.23
2022-09-20T16:59:56.027Z,99210.66
2022-09-20T17:05:03.777Z,99220.63
2022-09-20T17:10:12.658Z,99233.67
2022-09-20T17:15:21.407Z,99249.79
2022-09-20T17:20:30.115Z,99258.45
2022-09-20T17:25:47.546Z,99260.73
2022-09-20T17:30:56.465Z,99256.81
2022-09-20T17:36:06.930Z,99259.60
2022-09-20T17:41:19.501Z,99262.38
2022-09-20T17:46:30.354Z,99268.77
2022-09-20T17:51:40.387Z,99266.08
2022-09-20T17:56:49.873Z,99268.14
2022-09-20T18:01:58.300Z,99275.77
2022-09-20T18:07:08.581Z,99284.56
2022-09-20T18:12:19.805Z,99289.50
2022-09-20T18:17:28.491Z,99292.35
2022-09-20T18:22:35.802Z,99294.75
2022-09-20T18:27:43.836Z,99298.63
2022-09-20T18:32:57.473Z,99304.48
2022-09-20T18:38:05.388Z,99314.11
2022-09-20T18:43:14.560Z,99316.74
2022-09-20T18:48:23.432Z,99325.98
2022-09-20T18:53:38.366Z,99330.20
2022-09-20T18:58:45.901Z,99335.21
2022-09-20T19:04:01.164Z,99340.90
2022-09-20T19:09:20.558Z,99337.89
2022-09-20T19:14:38.093Z,99338.83
2022-09-20T19:19:54.866Z,99340.66
2022-09-20T19:25:20.541Z,99345.84
2022-09-20T19:30:32.859Z,99346.75
2022-09-20T19:35:49.600Z,99347.89
2022-09-20T19:41:04.152Z,99349.11
2022-09-20T19:46:15.192Z,99346.90
2022-09-20T19:51:23.857Z,99349.14
2022-09-20T19:56:46.020Z,99350.59
2022-09-20T20:01:55.248Z,99356.17
2022-09-20T20:07:08.336Z,99358.11
2022-09-20T20:12:25.901Z,99355.98
2022-09-20T20:17:47.424Z,99365.59
2022-09-20T20:34:17.803Z,99374.84
2022-09-20T20:39:25.504Z,99376.65
2022-09-20T20:44:35.219Z,99377.54
2022-09-20T20:49:43.648Z,99381.14
2022-09-20T20:54:51.308Z,99385.59
2022-09-20T21:00:00.989Z,99382.92
2022-09-20T21:05:10.722Z,99378.91
2022-09-20T21:10:17.943Z,99377.02
2022-09-20T21:15:27.527Z,99380.70
2022-09-20T21:20:35.418Z,99378.42
2022-09-20T21:25:45.419Z,99373.05
2022-09-20T21:31:04.275Z,99374.96
2022-09-20T21:36:14.029Z,99381.16
2022-09-20T21:41:23.495Z,99389.20
2022-09-20T21:46:33.405Z,99393.79
2022-09-20T21:51:42.111Z,99391.48
2022-09-20T21:56:50.139Z,99388.15
2022-09-20T22:01:59.129Z,99393.56
2022-09-20T22:07:06.312Z,99385.49
2022-09-20T22:12:14.586Z,99389.54
2022-09-20T22:17:24.326Z,99389.98
2022-09-20T22:22:36.156Z,99385.58
2022-09-20T22:27:45.563Z,99393.55
2022-09-20T22:32:52.723Z,99393.16
2022-09-20T22:38:03.342Z,99392.03
2022-09-20T22:43:13.400Z,99393.54
2022-09-20T22:48:22.593Z,99393.20
2022-09-20T22:53:36.392Z,99398.14
2022-09-20T22:58:46.578Z,99394.02
2022-09-20T23:04:01.092Z,99393.21
2022-09-20T23:09:10.587Z,99388.40
2022-09-20T23:14:21.640Z,99389.58
2022-09-20T23:19:31.134Z,99392.84
2022-09-20T23:24:38.030Z,99395.58
2022-09-20T23:29:45.841Z,99404.04
2022-09-20T23:34:52.820Z,99410.98
2022-09-20T23:40:03.174Z,99413.54
2022-09-20T23:45:13.845Z,99415.06
2022-09-20T23:50:21.377Z,99416.70
2022-09-20T23:55:29.281Z,99412.54
